createdAt,value
2023-05-21T00:02:22.120Z,22.55
2023-05-21T00:05:07.762Z,22.57
2023-05-21T00:07:53.022Z,22.64
2023-05-21T00:10:38.566Z,22.53
2023-05-21T00:13:23.935Z,22.64
2023-05-21T00:16:09.383Z,22.62
2023-05-21T00:18:54.869Z,22.65
2023-05-21T00:21:40.278Z,22.58
2023-05-21T00:24:25.450Z,22.59
2023-05-21T00:27:10.821Z,22.64
2023-05-21T00:29:56.133Z,22.56
2023-05-21T00:32:44.608Z,22.69
2023-05-21T00:35:30.086Z,22.54
2023-05-21T00:38:15.383Z,22.65
2023-05-21T00:41:00.784Z,22.63
2023-05-21T00:43:46.205Z,22.64
2023-05-21T00:46:31.575Z,22.60
2023-05-21T00:49:17.010Z,22.57
2023-05-21T00:52:02.278Z,22.62
2023-05-21T00:54:47.768Z,22.62
2023-05-21T00:57:32.866Z,22.64
2023-05-21T01:00:18.194Z,22.56
2023-05-21T01:03:03.840Z,22.66
2023-05-21T01:05:49.105Z,22.68
2023-05-21T01:08:34.574Z,22.67
2023-05-21T01:11:19.862Z,22.52
2023-05-21T01:14:05.479Z,22.64
2023-05-21T01:16:50.976Z,22.56
2023-05-21T01:19:36.160Z,22.59
2023-05-21T01:22:21.308Z,22.70
2023-05-21T01:25:06.654Z,22.66
2023-05-21T01:27:52.092Z,22.61
2023-05-21T01:30:37.460Z,22.64
2023-05-21T01:33:22.787Z,22.58
2023-05-21T01:36:08.277Z,22.55
2023-05-21T01:38:53.564Z,22.69
2023-05-21T01:41:39.080Z,22.59
2023-05-21T01:44:24.274Z,22.61
2023-05-21T01:47:09.399Z,22.64
2023-05-21T01:49:54.744Z,22.62
2023-05-21T01:52:39.972Z,22.60
2023-05-21T01:55:26.117Z,22.64
2023-05-21T01:58:11.393Z,22.57
2023-05-21T02:00:56.865Z,22.63
2023-05-21T02:03:42.244Z,22.67
2023-05-21T02:06:27.537Z,22.63
2023-05-21T02:09:12.979Z,22.52
2023-05-21T02:11:58.455Z,22.58
2023-05-21T02:14:43.830Z,22.65
2023-05-21T02:17:29.285Z,22.62
2023-05-21T02:20:14.676Z,22.70
2023-05-21T02:23:00.184Z,22.68
2023-05-21T02:25:45.620Z,22.56
2023-05-21T02:28:31.152Z,22.54
2023-05-21T02:31:16.489Z,22.57
2023-05-21T02:34:02.007Z,22.62
2023-05-21T02:36:47.436Z,22.64
2023-05-21T02:39:32.802Z,22.59
2023-05-21T02:42:18.276Z,22.67
2023-05-21T02:45:03.616Z,22.57
2023-05-21T02:47:48.847Z,22.62
2023-05-21T02:50:34.303Z,22.59
2023-05-21T02:53:19.647Z,22.50
2023-05-21T02:56:05.211Z,22.38
2023-05-21T02:58:50.529Z,22.56
2023-05-21T03:01:35.865Z,22.67
2023-05-21T03:04:21.215Z,22.62
2023-05-21T03:07:06.502Z,22.49
2023-05-21T03:09:51.896Z,22.59
2023-05-21T03:12:37.220Z,22.37
2023-05-21T03:15:22.782Z,22.65
2023-05-21T03:18:08.181Z,22.54
2023-05-21T03:20:53.287Z,22.63
2023-05-21T03:23:38.708Z,22.58
2023-05-21T03:26:23.958Z,22.49
2023-05-21T03:29:09.428Z,22.58
2023-05-21T03:31:54.975Z,22.47
2023-05-21T03:34:40.257Z,22.55
2023-05-21T03:37:25.754Z,22.55
2023-05-21T03:40:11.005Z,22.49
2023-05-21T03:42:56.397Z,22.53
2023-05-21T03:45:44.210Z,22.61
2023-05-21T03:48:29.654Z,22.65
2023-05-21T03:51:15.023Z,22.52
2023-05-21T03:54:00.369Z,22.56
2023-05-21T03:56:45.526Z,22.69
2023-05-21T03:59:31.076Z,22.38
2023-05-21T04:02:16.736Z,22.35
2023-05-21T04:05:02.024Z,22.40
2023-05-21T04:07:47.302Z,22.44
2023-05-21T04:10:32.434Z,22.59
2023-05-21T04:13:17.909Z,22.41
2023-05-21T04:16:03.395Z,22.46
2023-05-21T04:18:48.846Z,22.42
2023-05-21T04:21:34.207Z,22.44
2023-05-21T04:24:19.570Z,22.52
2023-05-21T04:27:04.804Z,22.46
2023-05-21T04:29:50.759Z,22.44
2023-05-21T04:32:35.955Z,22.38
2023-05-21T04:35:21.113Z,22.58
2023-05-21T04:38:06.459Z,22.46
2023-05-21T04:40:51.818Z,22.51
2023-05-21T04:43:37.204Z,22.44
2023-05-21T04:46:22.497Z,22.32
2023-05-21T04:49:07.945Z,22.60
2023-05-21T04:51:53.215Z,22.52
2023-05-21T04:54:38.418Z,22.45
2023-05-21T04:57:26.813Z,22.54
2023-05-21T05:00:11.961Z,22.34
2023-05-21T05:02:57.481Z,22.55
2023-05-21T05:05:42.808Z,22.51
2023-05-21T05:08:28.145Z,22.58
2023-05-21T05:11:13.541Z,22.58
2023-05-21T05:13:58.859Z,22.48
2023-05-21T05:16:44.260Z,22.47
2023-05-21T05:19:29.861Z,22.54
2023-05-21T05:22:15.043Z,22.44
2023-05-21T05:25:00.582Z,22.29
2023-05-21T05:27:45.955Z,22.32
2023-05-21T05:30:31.323Z,22.36
2023-05-21T05:33:16.508Z,22.27
2023-05-21T05:36:01.815Z,22.24
2023-05-21T05:38:47.240Z,22.35
2023-05-21T05:41:32.511Z,22.29
2023-05-21T05:44:17.973Z,22.40
2023-05-21T05:47:03.382Z,22.44
2023-05-21T05:49:48.404Z,22.49
2023-05-21T05:52:33.656Z,22.55
2023-05-21T05:55:19.112Z,22.40
2023-05-21T05:58:04.118Z,22.38
2023-05-21T06:00:49.372Z,22.56
2023-05-21T06:03:34.842Z,22.37
2023-05-21T06:06:20.076Z,22.28
2023-05-21T06:09:05.638Z,22.14
2023-05-21T06:11:50.923Z,22.12
2023-05-21T06:14:36.337Z,22.21
2023-05-21T06:17:21.788Z,22.35
2023-05-21T06:20:07.041Z,22.45
2023-05-21T06:22:52.336Z,22.60
2023-05-21T06:25:37.994Z,22.59
2023-05-21T06:28:23.687Z,22.60
2023-05-21T06:31:08.926Z,22.56
2023-05-21T06:33:54.113Z,22.63
2023-05-21T06:36:39.371Z,22.58
2023-05-21T06:39:24.748Z,22.57
2023-05-21T06:42:10.233Z,22.60
2023-05-21T06:44:55.291Z,22.58
2023-05-21T06:47:40.691Z,22.70
2023-05-21T06:50:26.109Z,22.66
2023-05-21T06:53:11.566Z,22.75
2023-05-21T06:55:57.069Z,22.64
2023-05-21T06:58:42.291Z,22.66
2023-05-21T07:01:27.801Z,22.66
2023-05-21T07:04:13.128Z,22.66
2023-05-21T07:06:58.385Z,22.65
2023-05-21T07:09:43.921Z,22.47
2023-05-21T07:12:29.227Z,22.52
2023-05-21T07:15:14.797Z,22.49
2023-05-21T07:18:00.159Z,22.62
2023-05-21T07:20:45.480Z,22.74
2023-05-21T07:23:30.895Z,22.73
2023-05-21T07:26:16.249Z,22.80
2023-05-21T07:29:01.792Z,22.75
2023-05-21T07:31:47.282Z,22.82
2023-05-21T07:34:32.679Z,22.87
2023-05-21T07:37:18.120Z,22.85
2023-05-21T07:40:03.417Z,22.78
2023-05-21T07:42:48.886Z,22.54
2023-05-21T07:45:34.459Z,22.71
2023-05-21T07:48:19.599Z,22.49
2023-05-21T07:51:04.974Z,22.35
2023-05-21T07:53:50.346Z,22.63
2023-05-21T07:56:35.748Z,22.54
2023-05-21T07:59:21.135Z,22.58
2023-05-21T08:02:06.622Z,22.55
2023-05-21T08:04:51.981Z,22.57
2023-05-21T08:07:37.109Z,22.61
2023-05-21T08:10:22.421Z,22.89
2023-05-21T08:13:07.679Z,22.73
2023-05-21T08:15:53.582Z,22.93
2023-05-21T08:18:38.601Z,22.92
2023-05-21T08:21:23.788Z,22.90
2023-05-21T08:24:09.119Z,22.73
2023-05-21T08:26:54.491Z,22.93
2023-05-21T08:29:39.822Z,22.82
2023-05-21T08:32:25.128Z,23.12
2023-05-21T08:35:10.585Z,22.96
2023-05-21T08:37:55.806Z,23.08
2023-05-21T08:40:41.158Z,23.05
2023-05-21T08:43:26.544Z,22.85
2023-05-21T08:46:11.812Z,22.84
2023-05-21T08:48:57.256Z,22.92
2023-05-21T08:51:42.638Z,22.92
2023-05-21T08:54:27.870Z,22.79
2023-05-21T08:57:13.330Z,22.89
2023-05-21T08:59:58.656Z,22.89
2023-05-21T09:02:44.257Z,22.83
2023-05-21T09:05:29.519Z,22.99
2023-05-21T09:08:14.910Z,22.95
2023-05-21T09:11:00.257Z,22.99
2023-05-21T09:13:45.246Z,22.90
2023-05-21T09:16:30.651Z,22.97
2023-05-21T09:19:15.891Z,23.06
2023-05-21T09:22:01.233Z,23.00
2023-05-21T09:24:46.206Z,22.93
2023-05-21T09:27:31.261Z,22.88
2023-05-21T09:30:16.645Z,23.02
2023-05-21T09:33:02.105Z,22.89
2023-05-21T09:35:47.422Z,22.85
2023-05-21T09:38:32.667Z,23.09
2023-05-21T09:41:21.576Z,22.78
2023-05-21T09:44:07.673Z,22.91
2023-05-21T09:46:53.140Z,22.87
2023-05-21T09:49:38.482Z,22.88
2023-05-21T09:52:23.673Z,23.04
2023-05-21T09:55:08.951Z,23.13
2023-05-21T09:57:54.268Z,22.97
2023-05-21T10:00:39.567Z,22.94
2023-05-21T10:03:24.947Z,22.84
2023-05-21T10:06:10.241Z,22.79
2023-05-21T10:08:55.634Z,22.65
2023-05-21T10:11:41.118Z,22.66
2023-05-21T10:14:26.557Z,22.98
2023-05-21T10:17:12.059Z,22.99
2023-05-21T10:19:57.315Z,22.87
2023-05-21T10:22:45.531Z,22.88
2023-05-21T10:25:30.941Z,22.90
2023-05-21T10:28:16.129Z,22.79
2023-05-21T10:31:01.756Z,23.01
2023-05-21T10:33:47.101Z,23.08
2023-05-21T10:36:32.574Z,22.85
2023-05-21T10:39:17.978Z,22.66
2023-05-21T10:42:03.301Z,22.81
2023-05-21T10:44:48.739Z,22.95
2023-05-21T10:47:34.182Z,22.75
2023-05-21T10:50:19.603Z,22.84
2023-05-21T10:53:05.056Z,22.90
2023-05-21T10:55:50.258Z,22.85
2023-05-21T10:58:35.735Z,22.82
2023-05-21T11:01:20.794Z,22.84
2023-05-21T11:04:06.061Z,22.86
2023-05-21T11:06:51.281Z,22.93
2023-05-21T11:09:36.631Z,23.11
2023-05-21T11:12:22.046Z,23.11
2023-05-21T11:15:07.391Z,23.13
2023-05-21T11:17:52.890Z,23.25
2023-05-21T11:20:38.294Z,23.14
2023-05-21T11:23:23.540Z,23.24
2023-05-21T11:26:08.784Z,23.20
2023-05-21T11:28:54.264Z,23.24
2023-05-21T11:31:39.835Z,23.21
2023-05-21T11:34:25.040Z,23.18
2023-05-21T11:37:10.474Z,23.29
2023-05-21T11:39:55.776Z,23.10
2023-05-21T11:42:41.029Z,23.27
2023-05-21T11:45:26.157Z,23.17
2023-05-21T11:48:11.736Z,23.21
2023-05-21T11:50:56.869Z,23.15
2023-05-21T11:53:43.515Z,23.36
2023-05-21T11:56:29.679Z,23.21
2023-05-21T11:59:17.129Z,23.26
2023-05-21T12:02:03.996Z,23.23
2023-05-21T12:04:49.389Z,23.25
2023-05-21T12:07:34.807Z,23.29
2023-05-21T12:10:20.146Z,23.23
2023-05-21T12:13:05.578Z,23.32
2023-05-21T12:15:50.893Z,23.31
2023-05-21T12:18:36.757Z,23.32
2023-05-21T12:21:22.225Z,23.32
2023-05-21T12:24:07.607Z,23.38
2023-05-21T12:26:52.935Z,23.34
2023-05-21T12:29:38.038Z,23.27
2023-05-21T12:32:23.429Z,23.22
2023-05-21T12:35:08.711Z,23.34
2023-05-21T12:37:53.992Z,23.19
2023-05-21T12:40:40.162Z,23.20
2023-05-21T12:43:25.674Z,23.29
2023-05-21T12:46:11.159Z,23.27
2023-05-21T12:48:56.367Z,23.30
2023-05-21T12:51:41.501Z,23.11
2023-05-21T12:54:26.815Z,23.17
2023-05-21T12:57:12.075Z,23.22
2023-05-21T12:59:57.438Z,23.29
2023-05-21T13:02:42.732Z,23.27
2023-05-21T13:05:28.990Z,23.25
2023-05-21T13:08:14.426Z,23.08
2023-05-21T13:10:59.679Z,23.15
2023-05-21T13:13:45.279Z,23.25
2023-05-21T13:16:30.748Z,23.23
2023-05-21T13:19:16.110Z,23.24
2023-05-21T13:22:01.241Z,23.30
2023-05-21T13:24:46.555Z,22.86
2023-05-21T13:27:32.078Z,23.24
2023-05-21T13:30:17.398Z,23.41
2023-05-21T13:33:03.000Z,23.40
2023-05-21T13:35:48.243Z,23.41
2023-05-21T13:38:33.695Z,23.36
2023-05-21T13:41:19.076Z,23.32
2023-05-21T13:44:04.340Z,23.44
2023-05-21T13:46:49.811Z,23.30
2023-05-21T13:49:35.039Z,23.19
2023-05-21T13:52:20.388Z,23.05
2023-05-21T13:55:06.012Z,23.16
2023-05-21T13:57:51.330Z,23.14
2023-05-21T14:00:36.799Z,23.06
2023-05-21T14:03:21.928Z,23.48
2023-05-21T14:06:07.192Z,23.47
2023-05-21T14:08:52.454Z,23.55
2023-05-21T14:11:37.878Z,23.37
2023-05-21T14:14:23.266Z,23.55
2023-05-21T14:17:08.552Z,23.55
2023-05-21T14:19:54.031Z,23.76
2023-05-21T14:22:39.615Z,23.69
2023-05-21T14:25:24.904Z,23.60
2023-05-21T14:28:10.139Z,23.65
2023-05-21T14:30:56.526Z,23.44
2023-05-21T14:33:41.979Z,23.58
2023-05-21T14:36:27.168Z,23.70
2023-05-21T14:39:12.666Z,23.50
2023-05-21T14:41:58.053Z,23.30
2023-05-21T14:44:43.786Z,23.23
2023-05-21T14:47:29.068Z,23.22
2023-05-21T14:50:14.243Z,23.32
2023-05-21T14:52:59.509Z,23.30
2023-05-21T14:55:44.794Z,23.24
2023-05-21T14:58:29.921Z,23.44
2023-05-21T15:01:15.313Z,23.52
2023-05-21T15:04:00.736Z,23.52
2023-05-21T15:06:46.376Z,23.62
2023-05-21T15:09:32.858Z,23.66
2023-05-21T15:12:18.310Z,23.64
2023-05-21T15:15:03.712Z,23.69
2023-05-21T15:17:48.853Z,23.73
2023-05-21T15:20:34.525Z,23.94
2023-05-21T15:23:19.828Z,23.87
2023-05-21T15:26:05.319Z,23.95
2023-05-21T15:28:50.663Z,24.00
2023-05-21T15:31:35.938Z,24.08
2023-05-21T15:34:21.171Z,24.17
2023-05-21T15:37:06.619Z,24.27
2023-05-21T15:39:52.033Z,24.42
2023-05-21T15:42:37.289Z,24.54
2023-05-21T15:45:22.820Z,24.71
2023-05-21T15:48:08.113Z,24.77
2023-05-21T15:50:53.504Z,24.82
2023-05-21T15:53:39.014Z,25.06
2023-05-21T15:56:24.318Z,25.10
2023-05-21T15:59:10.829Z,25.31
2023-05-21T16:01:56.270Z,25.28
2023-05-21T16:04:41.542Z,25.42
2023-05-21T16:07:26.925Z,25.49
2023-05-21T16:10:12.267Z,25.48
2023-05-21T16:12:57.643Z,25.57
2023-05-21T16:15:42.935Z,25.47
2023-05-21T16:18:28.350Z,25.40
2023-05-21T16:21:13.786Z,25.45
2023-05-21T16:23:58.984Z,25.29
2023-05-21T16:26:44.454Z,25.18
2023-05-21T16:29:29.915Z,25.13
2023-05-21T16:32:15.242Z,25.41
2023-05-21T16:35:00.489Z,25.04
2023-05-21T16:37:45.753Z,24.89
2023-05-21T16:40:31.072Z,24.70
2023-05-21T16:43:16.387Z,24.67
2023-05-21T16:46:01.826Z,24.69
2023-05-21T16:48:47.091Z,24.67
2023-05-21T16:51:32.561Z,24.59
2023-05-21T16:54:17.991Z,24.48
2023-05-21T16:57:03.184Z,24.44
2023-05-21T16:59:48.460Z,24.38
2023-05-21T17:02:33.861Z,24.27
2023-05-21T17:05:19.297Z,24.25
2023-05-21T17:08:04.858Z,24.21
2023-05-21T17:10:50.137Z,24.06
2023-05-21T17:13:35.497Z,24.01
2023-05-21T17:16:20.779Z,24.17
2023-05-21T17:19:06.279Z,24.11
2023-05-21T17:21:51.697Z,24.11
2023-05-21T17:24:37.146Z,24.02
2023-05-21T17:27:22.397Z,24.04
2023-05-21T17:30:07.497Z,23.99
2023-05-21T17:32:52.905Z,23.94
2023-05-21T17:35:38.416Z,24.00
2023-05-21T17:38:23.972Z,23.96
2023-05-21T17:41:09.342Z,23.92
2023-05-21T17:43:57.776Z,23.79
2023-05-21T17:46:43.202Z,23.89
2023-05-21T17:49:28.714Z,23.83
2023-05-21T17:52:13.953Z,23.84
2023-05-21T17:54:59.409Z,23.75
2023-05-21T17:57:44.906Z,23.73
2023-05-21T18:00:30.356Z,23.71
2023-05-21T18:03:15.654Z,23.55
2023-05-21T18:06:01.062Z,23.62
2023-05-21T18:08:46.327Z,23.53
2023-05-21T18:11:31.720Z,23.61
2023-05-21T18:14:17.142Z,23.61
2023-05-21T18:17:02.673Z,23.68
2023-05-21T18:19:48.013Z,23.60
2023-05-21T18:22:33.357Z,23.55
2023-05-21T18:25:18.702Z,23.64
2023-05-21T18:28:04.086Z,23.51
2023-05-21T18:30:49.344Z,23.45
2023-05-21T18:33:34.791Z,23.50
2023-05-21T18:36:20.257Z,23.42
2023-05-21T18:39:05.692Z,23.37
2023-05-21T18:41:53.698Z,23.27
2023-05-21T18:44:47.040Z,23.21
2023-05-21T18:47:32.504Z,23.25
2023-05-21T18:50:17.651Z,23.21
2023-05-21T18:53:03.229Z,23.21
2023-05-21T18:55:48.570Z,23.21
2023-05-21T18:58:33.917Z,23.13
2023-05-21T19:01:19.174Z,23.12
2023-05-21T19:04:04.463Z,23.19
2023-05-21T19:06:49.688Z,23.04
2023-05-21T19:09:35.121Z,23.05
2023-05-21T19:12:20.471Z,23.20
2023-05-21T19:15:05.767Z,23.23
2023-05-21T19:17:51.144Z,23.22
2023-05-21T19:20:36.670Z,23.25
2023-05-21T19:23:22.177Z,23.51
2023-05-21T19:26:07.686Z,23.25
2023-05-21T19:28:53.454Z,23.49
2023-05-21T19:31:39.383Z,23.25
2023-05-21T19:34:24.980Z,23.33
2023-05-21T19:37:10.221Z,23.28
2023-05-21T19:39:55.674Z,23.34
2023-05-21T19:42:40.864Z,23.27
2023-05-21T19:45:26.448Z,23.32
2023-05-21T19:48:11.717Z,23.29
2023-05-21T19:50:57.115Z,23.45
2023-05-21T19:53:42.414Z,23.52
2023-05-21T19:56:27.766Z,23.46
2023-05-21T19:59:15.985Z,23.51
2023-05-21T20:02:01.359Z,23.46
2023-05-21T20:04:46.654Z,23.52
2023-05-21T20:07:32.243Z,23.52
2023-05-21T20:10:17.596Z,23.44
2023-05-21T20:13:02.713Z,23.46
2023-05-21T20:15:51.159Z,23.55
2023-05-21T20:18:36.320Z,23.44
2023-05-21T20:21:21.778Z,23.45
2023-05-21T20:24:07.100Z,23.49
2023-05-21T20:26:52.467Z,23.43
2023-05-21T20:29:37.926Z,23.55
2023-05-21T20:32:23.245Z,23.47
2023-05-21T20:35:08.585Z,23.50
2023-05-21T20:37:53.705Z,23.44
2023-05-21T20:40:39.145Z,23.49
2023-05-21T20:43:24.430Z,23.45
2023-05-21T20:46:09.608Z,23.48
2023-05-21T20:48:54.980Z,23.51
2023-05-21T20:51:40.313Z,23.46
2023-05-21T20:54:25.571Z,23.40
2023-05-21T20:57:10.872Z,23.41
2023-05-21T20:59:56.314Z,23.39
2023-05-21T21:02:41.725Z,23.43
2023-05-21T21:05:26.876Z,23.45
2023-05-21T21:08:12.348Z,23.31
2023-05-21T21:10:57.572Z,23.33
2023-05-21T21:13:42.998Z,23.46
2023-05-21T21:16:28.408Z,23.50
2023-05-21T21:19:13.735Z,23.42
2023-05-21T21:21:59.022Z,23.48
2023-05-21T21:24:44.229Z,23.41
2023-05-21T21:27:29.675Z,23.35
2023-05-21T21:30:15.114Z,23.26
2023-05-21T21:33:00.644Z,23.40
2023-05-21T21:35:45.984Z,23.28
2023-05-21T21:38:31.348Z,23.35
2023-05-21T21:41:16.749Z,23.33
2023-05-21T21:44:02.105Z,23.46
2023-05-21T21:46:47.495Z,23.35
2023-05-21T21:49:32.811Z,23.35
2023-05-21T21:52:18.169Z,23.34
2023-05-21T21:55:03.612Z,23.32
2023-05-21T21:57:48.796Z,23.44
2023-05-21T22:00:34.205Z,23.30
2023-05-21T22:03:19.548Z,23.35
2023-05-21T22:06:05.005Z,23.38
2023-05-21T22:08:50.458Z,23.27
2023-05-21T22:11:35.767Z,23.28
2023-05-21T22:14:21.233Z,23.21
2023-05-21T22:17:06.537Z,23.34
2023-05-21T22:19:51.888Z,23.36
2023-05-21T22:22:37.224Z,23.25
2023-05-21T22:25:22.518Z,23.27
2023-05-21T22:28:08.008Z,23.31
2023-05-21T22:30:53.244Z,23.31
2023-05-21T22:33:38.695Z,23.35
2023-05-21T22:36:24.046Z,23.20
2023-05-21T22:39:09.470Z,23.28
2023-05-21T22:41:54.803Z,23.24
2023-05-21T22:44:39.831Z,23.25
2023-05-21T22:47:25.031Z,23.24
2023-05-21T22:50:10.436Z,23.23
2023-05-21T22:52:55.664Z,23.20
2023-05-21T22:55:40.997Z,23.23
2023-05-21T22:58:26.281Z,23.21
2023-05-21T23:01:11.647Z,23.21
2023-05-21T23:03:56.915Z,23.27
2023-05-21T23:06:42.206Z,23.20
2023-05-21T23:09:27.516Z,23.19
2023-05-21T23:12:12.847Z,23.25
2023-05-21T23:14:58.242Z,23.20
2023-05-21T23:17:43.538Z,23.20
2023-05-21T23:20:28.688Z,23.19
2023-05-21T23:23:13.927Z,23.23
2023-05-21T23:25:59.127Z,23.14
2023-05-21T23:28:44.454Z,23.10
2023-05-21T23:31:29.774Z,23.19
2023-05-21T23:34:15.052Z,23.18
2023-05-21T23:37:00.641Z,23.14
2023-05-21T23:39:46.188Z,23.24
2023-05-21T23:42:31.464Z,23.24
2023-05-21T23:45:16.828Z,23.22
2023-05-21T23:48:02.302Z,23.12
2023-05-21T23:50:47.549Z,23.12
2023-05-21T23:53:33.115Z,23.14
2023-05-21T23:56:18.318Z,23.13
2023-05-21T23:59:03.863Z,23.18
